createdAt,value
2019-02-07T00:00:29.619Z,99887.00
2019-02-07T00:02:58.725Z,99891.00
2019-02-07T00:05:27.834Z,99889.00
2019-02-07T00:07:57.168Z,99879.00
2019-02-07T00:10:26.557Z,99888.00
2019-02-07T00:12:55.969Z,99876.00
2019-02-07T00:15:25.144Z,99884.00
2019-02-07T00:17:54.283Z,99880.00
2019-02-07T00:20:23.611Z,99875.00
2019-02-07T00:22:52.760Z,99876.00
2019-02-07T00:25:22.123Z,99876.00
2019-02-07T00:27:51.831Z,99883.00
2019-02-07T00:30:22.740Z,99876.00
2019-02-07T00:32:52.199Z,99862.00
2019-02-07T00:35:21.560Z,99865.00
2019-02-07T00:37:50.919Z,99857.00
2019-02-07T00:40:21.292Z,99856.00
2019-02-07T00:42:50.389Z,99839.00
2019-02-07T00:45:20.167Z,99849.00
2019-02-07T00:47:49.636Z,99837.00
2019-02-07T00:50:19.610Z,99839.00
2019-02-07T00:52:48.701Z,99829.00
2019-02-07T00:55:20.272Z,99826.00
2019-02-07T00:57:49.402Z,99820.00
2019-02-07T01:00:21.644Z,99808.00
2019-02-07T01:02:51.252Z,99813.00
2019-02-07T01:05:22.069Z,99805.00
2019-02-07T01:07:51.712Z,99800.00
2019-02-07T01:10:27.655Z,99795.00
2019-02-07T01:12:57.016Z,99798.00
2019-02-07T01:15:27.400Z,99799.00
2019-02-07T01:17:56.614Z,99796.00
2019-02-07T01:20:25.695Z,99794.00
2019-02-07T01:22:55.615Z,99787.00
2019-02-07T01:25:25.899Z,99788.00
2019-02-07T01:27:55.662Z,99788.00
2019-02-07T01:30:28.191Z,99785.00
2019-02-07T01:32:57.361Z,99768.00
2019-02-07T01:35:26.475Z,99748.00
2019-02-07T01:37:55.748Z,99749.00
2019-02-07T01:40:25.145Z,99759.00
2019-02-07T01:42:55.794Z,99758.00
2019-02-07T01:45:25.752Z,99753.00
2019-02-07T01:47:55.392Z,99753.00
2019-02-07T01:50:25.553Z,99740.00
2019-02-07T01:52:55.010Z,99742.00
2019-02-07T01:55:24.164Z,99736.00
2019-02-07T01:57:53.581Z,99732.00
2019-02-07T02:00:22.697Z,99723.00
2019-02-07T02:02:52.134Z,99726.00
2019-02-07T02:05:21.291Z,99720.00
2019-02-07T02:07:51.517Z,99712.00
2019-02-07T02:10:27.850Z,99713.00
2019-02-07T02:12:57.257Z,99703.00
2019-02-07T02:15:26.763Z,99693.00
2019-02-07T02:17:55.848Z,99693.00
2019-02-07T02:20:25.617Z,99692.00
2019-02-07T02:22:56.343Z,99689.00
2019-02-07T02:25:25.702Z,99686.00
2019-02-07T02:27:55.115Z,99682.00
2019-02-07T02:30:26.734Z,99681.00
2019-02-07T02:32:56.083Z,99671.00
2019-02-07T02:35:25.396Z,99670.00
2019-02-07T02:37:54.746Z,99672.00
2019-02-07T02:40:23.829Z,99668.00
2019-02-07T02:42:53.162Z,99648.00
2019-02-07T02:45:23.413Z,99655.00
2019-02-07T02:47:52.941Z,99647.00
2019-02-07T02:50:22.218Z,99653.00
2019-02-07T02:52:51.916Z,99637.00
2019-02-07T02:55:37.770Z,99637.00
2019-02-07T02:58:07.046Z,99634.00
2019-02-07T03:00:46.650Z,99635.00
2019-02-07T03:03:32.569Z,99636.00
2019-02-07T03:06:09.121Z,99623.00
2019-02-07T03:08:56.355Z,99622.00
2019-02-07T03:11:27.362Z,99619.00
2019-02-07T03:14:13.212Z,99608.00
2019-02-07T03:17:02.188Z,99616.00
2019-02-07T03:19:35.963Z,99615.00
2019-02-07T03:22:06.822Z,99612.00
2019-02-07T03:24:53.528Z,99619.00
2019-02-07T03:27:40.572Z,99621.00
2019-02-07T03:30:26.358Z,99615.00
2019-02-07T03:33:08.820Z,99611.00
2019-02-07T03:35:45.877Z,99613.00
2019-02-07T03:38:34.472Z,99604.00
2019-02-07T03:41:08.124Z,99591.00
2019-02-07T03:43:56.696Z,99593.00
2019-02-07T03:46:27.444Z,99584.00
2019-02-07T03:49:13.267Z,99588.00
2019-02-07T03:51:49.456Z,99576.00
2019-02-07T03:54:20.206Z,99572.00
2019-02-07T03:56:59.447Z,99566.00
2019-02-07T03:59:42.597Z,99560.00
2019-02-07T04:02:19.430Z,99562.00
2019-02-07T04:04:50.416Z,99546.00
2019-02-07T04:07:21.141Z,99551.00
2019-02-07T04:09:57.809Z,99540.00
2019-02-07T04:12:40.802Z,99547.00
2019-02-07T04:15:11.547Z,99545.00
2019-02-07T04:18:00.399Z,99546.00
2019-02-07T04:20:31.364Z,99555.00
2019-02-07T04:23:05.044Z,99551.00
2019-02-07T04:25:36.540Z,99538.00
2019-02-07T04:28:25.358Z,99539.00
2019-02-07T04:31:01.885Z,99544.00
2019-02-07T04:33:32.881Z,99532.00
2019-02-07T04:36:03.588Z,99541.00
2019-02-07T04:38:50.711Z,99524.00
2019-02-07T04:41:33.438Z,99521.00
2019-02-07T04:44:20.212Z,99519.00
2019-02-07T04:46:59.701Z,99509.00
2019-02-07T04:49:42.241Z,99512.00
2019-02-07T04:52:25.149Z,99516.00
2019-02-07T04:55:11.857Z,99500.00
2019-02-07T04:57:46.198Z,99509.00
2019-02-07T05:00:18.765Z,99509.00
2019-02-07T05:03:04.598Z,99507.00
2019-02-07T05:05:35.642Z,99498.00
2019-02-07T05:08:15.237Z,99498.00
2019-02-07T05:11:02.002Z,99500.00
2019-02-07T05:13:32.835Z,99489.00
2019-02-07T05:16:18.964Z,99492.00
2019-02-07T05:18:49.945Z,99476.00
2019-02-07T05:21:38.413Z,99477.00
2019-02-07T05:24:14.958Z,99479.00
2019-02-07T05:27:01.511Z,99472.00
2019-02-07T05:29:41.511Z,99468.00
2019-02-07T05:32:21.888Z,99466.00
2019-02-07T05:35:08.043Z,99462.00
2019-02-07T05:37:38.798Z,99452.00
2019-02-07T05:40:14.946Z,99450.00
2019-02-07T05:42:48.882Z,99448.00
2019-02-07T05:45:19.592Z,99450.00
2019-02-07T05:47:59.379Z,99451.00
2019-02-07T05:50:30.086Z,99448.00
2019-02-07T05:53:06.320Z,99451.00
2019-02-07T05:55:42.736Z,99447.00
2019-02-07T05:58:28.338Z,99437.00
2019-02-07T06:01:08.525Z,99430.00
2019-02-07T06:03:54.064Z,99433.00
2019-02-07T06:06:27.971Z,99436.00
2019-02-07T06:09:02.235Z,99434.00
2019-02-07T06:11:44.721Z,99430.00
2019-02-07T06:14:21.464Z,99424.00
2019-02-07T06:17:02.815Z,99433.00
2019-02-07T06:19:48.974Z,99433.00
2019-02-07T06:22:22.444Z,99428.00
2019-02-07T06:24:59.444Z,99414.00
2019-02-07T06:27:33.151Z,99429.00
2019-02-07T06:30:20.342Z,99422.00
2019-02-07T06:32:57.026Z,99412.00
2019-02-07T06:35:39.488Z,99409.00
2019-02-07T06:38:10.245Z,99403.00
2019-02-07T06:40:41.316Z,99400.00
2019-02-07T06:43:18.093Z,99395.00
2019-02-07T06:45:48.876Z,99395.00
2019-02-07T06:48:19.642Z,99393.00
2019-02-07T06:50:50.634Z,99391.00
2019-02-07T06:53:23.920Z,99389.00
2019-02-07T06:56:06.290Z,99381.00
2019-02-07T06:58:52.124Z,99386.00
2019-02-07T07:01:39.184Z,99382.00
2019-02-07T07:04:25.093Z,99372.00
2019-02-07T07:07:04.695Z,99366.00
2019-02-07T07:09:35.401Z,99364.00
2019-02-07T07:12:22.605Z,99359.00
2019-02-07T07:15:09.167Z,99368.00
2019-02-07T07:17:40.111Z,99375.00
2019-02-07T07:20:17.591Z,99365.00
2019-02-07T07:23:06.458Z,99362.00
2019-02-07T07:25:53.539Z,99364.00
2019-02-07T07:28:27.269Z,99363.00
2019-02-07T07:31:03.730Z,99377.00
2019-02-07T07:33:37.587Z,99376.00
2019-02-07T07:36:23.390Z,99370.00
2019-02-07T07:38:57.191Z,99363.00
2019-02-07T07:41:43.018Z,99361.00
2019-02-07T07:44:19.830Z,99362.00
2019-02-07T07:46:50.800Z,99362.00
2019-02-07T07:49:21.674Z,99354.00
2019-02-07T07:52:01.175Z,99341.00
2019-02-07T07:54:48.474Z,99345.00
2019-02-07T07:57:22.527Z,99333.00
2019-02-07T07:59:53.495Z,99328.00
2019-02-07T08:02:30.203Z,99334.00
2019-02-07T08:05:06.730Z,99322.00
2019-02-07T08:07:37.440Z,99320.00
2019-02-07T08:10:27.568Z,99315.00
2019-02-07T08:12:58.327Z,99323.00
2019-02-07T08:15:37.977Z,99321.00
2019-02-07T08:18:08.767Z,99329.00
2019-02-07T08:20:39.560Z,99334.00
2019-02-07T08:23:13.945Z,99324.00
2019-02-07T08:25:59.296Z,99319.00
2019-02-07T08:28:36.534Z,99307.00
2019-02-07T08:31:08.040Z,99294.00
2019-02-07T08:33:41.221Z,99285.00
2019-02-07T08:36:15.246Z,99274.00
2019-02-07T08:38:58.469Z,99286.00
2019-02-07T08:41:29.382Z,99282.00
2019-02-07T08:44:02.841Z,99274.00
2019-02-07T08:46:39.394Z,99268.00
2019-02-07T08:49:13.040Z,99262.00
2019-02-07T08:51:49.556Z,99272.00
2019-02-07T08:54:26.186Z,99258.00
2019-02-07T08:56:59.349Z,99257.00
2019-02-07T08:59:31.961Z,99259.00
2019-02-07T09:02:03.062Z,99255.00
2019-02-07T09:04:36.558Z,99247.00
2019-02-07T09:07:09.985Z,99252.00
2019-02-07T09:09:57.011Z,99259.00
2019-02-07T09:12:34.169Z,99260.00
2019-02-07T09:15:16.633Z,99262.00
2019-02-07T09:18:09.852Z,99249.00
2019-02-07T09:20:51.557Z,99251.00
2019-02-07T09:23:22.354Z,99256.00
2019-02-07T09:25:53.419Z,99244.00
2019-02-07T09:28:29.845Z,99249.00
2019-02-07T09:31:03.209Z,99253.00
2019-02-07T09:33:50.413Z,99257.00
2019-02-07T09:36:38.830Z,99261.00
2019-02-07T09:39:26.045Z,99256.00
2019-02-07T09:41:56.868Z,99261.00
2019-02-07T09:44:47.240Z,99273.00
2019-02-07T09:47:18.241Z,99271.00
2019-02-07T09:50:04.953Z,99259.00
2019-02-07T09:52:47.722Z,99263.00
2019-02-07T09:55:30.781Z,99262.00
2019-02-07T09:58:01.758Z,99287.00
2019-02-07T10:00:50.605Z,99278.00
2019-02-07T10:03:30.168Z,99272.00
2019-02-07T10:06:00.928Z,99280.00
2019-02-07T10:08:47.694Z,99277.00
2019-02-07T10:11:24.105Z,99269.00
2019-02-07T10:13:55.198Z,99278.00
2019-02-07T10:16:32.537Z,99281.00
2019-02-07T10:19:03.602Z,99283.00
2019-02-07T10:21:37.289Z,99279.00
2019-02-07T10:24:08.096Z,99271.00
2019-02-07T10:26:41.822Z,99275.00
2019-02-07T10:29:12.908Z,99264.00
2019-02-07T10:31:58.581Z,99261.00
2019-02-07T10:34:45.097Z,99250.00
2019-02-07T10:37:18.526Z,99258.00
2019-02-07T10:39:51.968Z,99257.00
2019-02-07T10:42:22.713Z,99248.00
2019-02-07T10:44:56.153Z,99247.00
2019-02-07T10:47:39.066Z,99240.00
2019-02-07T10:50:28.402Z,99241.00
2019-02-07T10:53:05.400Z,99241.00
2019-02-07T10:55:54.073Z,99236.00
2019-02-07T10:58:25.671Z,99231.00
2019-02-07T11:00:56.432Z,99226.00
2019-02-07T11:03:28.717Z,99216.00
2019-02-07T11:06:17.562Z,99216.00
2019-02-07T11:08:51.130Z,99217.00
2019-02-07T11:11:22.103Z,99214.00
2019-02-07T11:13:55.580Z,99206.00
2019-02-07T11:16:32.532Z,99199.00
2019-02-07T11:19:21.267Z,99204.00
2019-02-07T11:21:57.996Z,99199.00
2019-02-07T11:24:45.511Z,99190.00
2019-02-07T11:27:20.612Z,99182.00
2019-02-07T11:29:57.363Z,99190.00
2019-02-07T11:32:28.528Z,99178.00
2019-02-07T11:35:01.982Z,99172.00
2019-02-07T11:37:38.695Z,99167.00
2019-02-07T11:40:22.778Z,99168.00
2019-02-07T11:42:59.374Z,99177.00
2019-02-07T11:45:42.163Z,99170.00
2019-02-07T11:48:15.781Z,99161.00
2019-02-07T11:50:52.625Z,99157.00
2019-02-07T11:53:26.036Z,99158.00
2019-02-07T11:55:59.797Z,99152.00
2019-02-07T11:58:47.017Z,99147.00
2019-02-07T12:01:29.571Z,99139.00
2019-02-07T12:04:16.936Z,99141.00
2019-02-07T12:07:03.166Z,99143.00
2019-02-07T12:09:46.116Z,99144.00
2019-02-07T12:12:16.872Z,99142.00
2019-02-07T12:14:49.365Z,99147.00
2019-02-07T12:17:37.978Z,99140.00
2019-02-07T12:20:16.150Z,99136.00
2019-02-07T12:23:03.032Z,99139.00
2019-02-07T12:25:33.856Z,99138.00
2019-02-07T12:28:13.508Z,99136.00
2019-02-07T12:30:44.325Z,99127.00
2019-02-07T12:33:21.006Z,99126.00
2019-02-07T12:36:00.858Z,99128.00
2019-02-07T12:38:43.678Z,99128.00
2019-02-07T12:41:14.722Z,99132.00
2019-02-07T12:43:58.157Z,99127.00
2019-02-07T12:46:34.661Z,99135.00
2019-02-07T12:49:08.086Z,99133.00
2019-02-07T12:51:53.761Z,99122.00
2019-02-07T12:54:24.502Z,99132.00
2019-02-07T12:56:55.239Z,99114.00
2019-02-07T12:59:35.302Z,99124.00
2019-02-07T13:02:12.096Z,99110.00
2019-02-07T13:04:49.671Z,99128.00
2019-02-07T13:07:36.399Z,99128.00
2019-02-07T13:10:13.297Z,99125.00
2019-02-07T13:12:47.389Z,99117.00
2019-02-07T13:15:34.449Z,99119.00
2019-02-07T13:18:11.148Z,99126.00
2019-02-07T13:20:58.136Z,99131.00
2019-02-07T13:23:43.913Z,99123.00
2019-02-07T13:26:14.639Z,99138.00
2019-02-07T13:29:03.238Z,99146.00
2019-02-07T13:31:49.794Z,99152.00
2019-02-07T13:34:37.180Z,99151.00
2019-02-07T13:37:07.947Z,99158.00
2019-02-07T13:39:47.636Z,99155.00
2019-02-07T13:42:18.630Z,99153.00
2019-02-07T13:45:01.626Z,99150.00
2019-02-07T13:47:48.623Z,99143.00
2019-02-07T13:50:19.935Z,99145.00
2019-02-07T13:53:06.865Z,99151.00
2019-02-07T13:55:50.452Z,99154.00
2019-02-07T13:58:24.201Z,99149.00
2019-02-07T14:00:55.197Z,99148.00
2019-02-07T14:03:29.053Z,99166.00
2019-02-07T14:06:00.053Z,99157.00
2019-02-07T14:08:47.455Z,99151.00
2019-02-07T14:11:18.498Z,99146.00
2019-02-07T14:14:04.628Z,99147.00
2019-02-07T14:16:40.781Z,99147.00
2019-02-07T14:19:11.512Z,99137.00
2019-02-07T14:21:42.529Z,99113.00
2019-02-07T14:24:16.141Z,99134.00
2019-02-07T14:26:49.982Z,99139.00
2019-02-07T14:29:23.576Z,99144.00
2019-02-07T14:31:57.601Z,99141.00
2019-02-07T14:34:43.649Z,99153.00
2019-02-07T14:37:17.103Z,99154.00
2019-02-07T14:39:50.977Z,99148.00
2019-02-07T14:42:21.956Z,99150.00
2019-02-07T14:44:52.692Z,99150.00
2019-02-07T14:47:22.029Z,99156.00
2019-02-07T14:49:51.434Z,99153.00
2019-02-07T14:52:20.573Z,99154.00
2019-02-07T14:54:49.689Z,99146.00
2019-02-07T14:57:19.058Z,99140.00
2019-02-07T14:59:48.163Z,99135.00
2019-02-07T15:02:17.850Z,99134.00
2019-02-07T15:04:46.931Z,99143.00
2019-02-07T15:07:16.150Z,99134.00
2019-02-07T15:09:45.535Z,99154.00
2019-02-07T15:12:14.733Z,99152.00
2019-02-07T15:14:43.850Z,99152.00
2019-02-07T15:17:13.419Z,99155.00
2019-02-07T15:19:42.559Z,99147.00
2019-02-07T15:22:11.689Z,99147.00
2019-02-07T15:24:40.767Z,99149.00
2019-02-07T15:27:09.882Z,99152.00
2019-02-07T15:29:39.223Z,99143.00
2019-02-07T15:32:08.658Z,99147.00
2019-02-07T15:34:37.740Z,99147.00
2019-02-07T15:37:06.966Z,99151.00
2019-02-07T15:39:36.321Z,99157.00
2019-02-07T15:42:05.450Z,99164.00
2019-02-07T15:44:34.867Z,99151.00
2019-02-07T15:47:05.003Z,99145.00
2019-02-07T15:49:34.385Z,99143.00
2019-02-07T15:52:03.767Z,99148.00
2019-02-07T15:54:32.917Z,99149.00
2019-02-07T15:57:02.311Z,99138.00
2019-02-07T15:59:33.024Z,99142.00
2019-02-07T16:02:04.049Z,99153.00
2019-02-07T16:04:33.198Z,99143.00
2019-02-07T16:07:02.372Z,99147.00
2019-02-07T16:09:31.456Z,99149.00
2019-02-07T16:12:00.590Z,99167.00
2019-02-07T16:14:30.745Z,99168.00
2019-02-07T16:17:00.158Z,99171.00
2019-02-07T16:19:29.492Z,99180.00
2019-02-07T16:21:58.580Z,99188.00
2019-02-07T16:24:27.721Z,99190.00
2019-02-07T16:26:56.841Z,99178.00
2019-02-07T16:29:25.965Z,99185.00
2019-02-07T16:31:55.650Z,99176.00
2019-02-07T16:34:25.202Z,99188.00
2019-02-07T16:36:54.496Z,99177.00
2019-02-07T16:39:23.932Z,99178.00
2019-02-07T16:41:53.254Z,99176.00
2019-02-07T16:44:22.405Z,99174.00
2019-02-07T16:46:54.411Z,99182.00
2019-02-07T16:49:22.534Z,99173.00
2019-02-07T16:51:51.873Z,99163.00
2019-02-07T16:54:20.976Z,99167.00
2019-02-07T16:56:50.380Z,99177.00
2019-02-07T16:59:19.717Z,99189.00
2019-02-07T17:01:48.967Z,99174.00
2019-02-07T17:04:18.415Z,99189.00
2019-02-07T17:06:47.840Z,99193.00
2019-02-07T17:09:18.603Z,99196.00
2019-02-07T17:11:48.037Z,99205.00
2019-02-07T17:14:17.153Z,99206.00
2019-02-07T17:16:47.093Z,99202.00
2019-02-07T17:19:16.180Z,99211.00
2019-02-07T17:21:45.286Z,99210.00
2019-02-07T17:24:14.422Z,99219.00
2019-02-07T17:26:43.538Z,99216.00
2019-02-07T17:29:12.629Z,99220.00
2019-02-07T17:31:42.299Z,99210.00
2019-02-07T17:34:11.398Z,99214.00
2019-02-07T17:36:40.520Z,99219.00
2019-02-07T17:39:09.775Z,99213.00
2019-02-07T17:41:38.808Z,99222.00
2019-02-07T17:44:08.773Z,99218.00
2019-02-07T17:46:38.510Z,99215.00
2019-02-07T17:49:07.593Z,99232.00
2019-02-07T17:51:36.689Z,99225.00
2019-02-07T17:54:05.854Z,99226.00
2019-02-07T17:56:34.938Z,99234.00
2019-02-07T17:59:06.188Z,99224.00
2019-02-07T18:01:35.451Z,99230.00
2019-02-07T18:04:04.808Z,99233.00
2019-02-07T18:06:33.896Z,99224.00
2019-02-07T18:09:04.861Z,99243.00
2019-02-07T18:11:33.940Z,99258.00
2019-02-07T18:14:03.048Z,99249.00
2019-02-07T18:16:32.360Z,99252.00
2019-02-07T18:19:01.724Z,99257.00
2019-02-07T18:21:34.282Z,99269.00
2019-02-07T18:24:02.191Z,99264.00
2019-02-07T18:26:31.309Z,99281.00
2019-02-07T18:29:00.456Z,99284.00
2019-02-07T18:31:29.761Z,99290.00
2019-02-07T18:33:58.875Z,99286.00
2019-02-07T18:36:28.495Z,99278.00
2019-02-07T18:38:57.908Z,99275.00
2019-02-07T18:41:26.997Z,99285.00
2019-02-07T18:43:56.076Z,99288.00
2019-02-07T18:46:25.231Z,99307.00
2019-02-07T18:48:57.100Z,99317.00
2019-02-07T18:51:26.195Z,99305.00
2019-02-07T18:53:55.312Z,99308.00
2019-02-07T18:56:24.827Z,99313.00
2019-02-07T18:58:53.876Z,99323.00
2019-02-07T19:01:23.006Z,99314.00
2019-02-07T19:03:52.122Z,99323.00
2019-02-07T19:06:21.282Z,99310.00
2019-02-07T19:08:50.620Z,99315.00
2019-02-07T19:11:19.782Z,99305.00
2019-02-07T19:13:48.893Z,99313.00
2019-02-07T19:16:18.016Z,99305.00
2019-02-07T19:18:47.586Z,99309.00
2019-02-07T19:21:16.676Z,99314.00
2019-02-07T19:23:45.857Z,99317.00
2019-02-07T19:26:14.982Z,99312.00
2019-02-07T19:28:44.075Z,99324.00
2019-02-07T19:31:13.168Z,99325.00
2019-02-07T19:33:42.583Z,99317.00
2019-02-07T19:36:11.968Z,99329.00
2019-02-07T19:38:41.332Z,99330.00
2019-02-07T19:41:10.466Z,99340.00
2019-02-07T19:43:39.573Z,99338.00
2019-02-07T19:46:08.980Z,99326.00
2019-02-07T19:48:38.330Z,99325.00
2019-02-07T19:51:07.441Z,99324.00
2019-02-07T19:53:36.546Z,99321.00
2019-02-07T19:56:06.127Z,99327.00
2019-02-07T19:58:35.274Z,99330.00
2019-02-07T20:01:04.812Z,99338.00
2019-02-07T20:03:34.171Z,99329.00
2019-02-07T20:06:03.288Z,99345.00
2019-02-07T20:08:32.402Z,99337.00
2019-02-07T20:11:01.497Z,99338.00
2019-02-07T20:13:30.615Z,99353.00
2019-02-07T20:16:02.967Z,99350.00
2019-02-07T20:18:32.060Z,99362.00
2019-02-07T20:21:01.729Z,99349.00
2019-02-07T20:23:30.805Z,99355.00
2019-02-07T20:26:00.152Z,99356.00
2019-02-07T20:28:29.372Z,99362.00
2019-02-07T20:30:58.746Z,99370.00
2019-02-07T20:33:28.110Z,99366.00
2019-02-07T20:35:57.197Z,99360.00
2019-02-07T20:38:26.858Z,99370.00
2019-02-07T20:40:56.276Z,99375.00
2019-02-07T20:43:25.377Z,99383.00
2019-02-07T20:45:54.736Z,99385.00
2019-02-07T20:48:23.807Z,99384.00
2019-02-07T20:50:52.920Z,99381.00
2019-02-07T20:53:22.016Z,99369.00
2019-02-07T20:55:51.647Z,99373.00
2019-02-07T20:58:21.297Z,99379.00
2019-02-07T21:00:50.393Z,99392.00
2019-02-07T21:03:19.731Z,99388.00
2019-02-07T21:05:49.071Z,99386.00
2019-02-07T21:08:18.148Z,99391.00
2019-02-07T21:10:47.586Z,99393.00
2019-02-07T21:13:16.718Z,99382.00
2019-02-07T21:15:46.131Z,99382.00
2019-02-07T21:18:15.484Z,99398.00
2019-02-07T21:20:44.617Z,99386.00
2019-02-07T21:23:13.761Z,99392.00
2019-02-07T21:25:45.333Z,99394.00
2019-02-07T21:28:14.509Z,99398.00
2019-02-07T21:30:43.609Z,99408.00
2019-02-07T21:33:12.768Z,99416.00
2019-02-07T21:35:42.314Z,99417.00
2019-02-07T21:38:11.423Z,99416.00
2019-02-07T21:40:40.559Z,99424.00
2019-02-07T21:43:09.764Z,99435.00
2019-02-07T21:45:38.928Z,99427.00
2019-02-07T21:48:08.819Z,99437.00
2019-02-07T21:50:38.323Z,99431.00
2019-02-07T21:53:07.494Z,99422.00
2019-02-07T21:55:37.634Z,99432.00
2019-02-07T21:58:08.391Z,99437.00
2019-02-07T22:00:43.048Z,99444.00
2019-02-07T22:03:14.414Z,99442.00
2019-02-07T22:05:43.669Z,99435.00
2019-02-07T22:08:13.539Z,99430.00
2019-02-07T22:10:42.689Z,99434.00
2019-02-07T22:13:12.289Z,99435.00
2019-02-07T22:15:41.393Z,99436.00
2019-02-07T22:18:10.600Z,99439.00
2019-02-07T22:20:39.718Z,99439.00
2019-02-07T22:23:08.817Z,99438.00
2019-02-07T22:25:37.941Z,99442.00
2019-02-07T22:28:08.027Z,99442.00
2019-02-07T22:30:37.939Z,99443.00
2019-02-07T22:33:08.685Z,99444.00
2019-02-07T22:35:38.043Z,99444.00
2019-02-07T22:38:08.306Z,99451.00
2019-02-07T22:40:37.705Z,99452.00
2019-02-07T22:43:07.534Z,99442.00
2019-02-07T22:45:37.221Z,99455.00
2019-02-07T22:48:06.469Z,99455.00
2019-02-07T22:50:36.088Z,99450.00
2019-02-07T22:53:06.151Z,99457.00
2019-02-07T22:55:35.488Z,99454.00
2019-02-07T22:58:05.715Z,99461.00
2019-02-07T23:00:39.616Z,99464.00
2019-02-07T23:03:17.058Z,99460.00
2019-02-07T23:05:46.501Z,99461.00
2019-02-07T23:08:15.790Z,99479.00
2019-02-07T23:10:45.797Z,99470.00
2019-02-07T23:13:14.970Z,99478.00
2019-02-07T23:15:44.090Z,99472.00
2019-02-07T23:18:13.269Z,99466.00
2019-02-07T23:20:42.356Z,99464.00
2019-02-07T23:23:12.185Z,99459.00
2019-02-07T23:25:42.232Z,99467.00
2019-02-07T23:28:11.413Z,99466.00
2019-02-07T23:30:40.981Z,99469.00
2019-02-07T23:33:10.126Z,99459.00
2019-02-07T23:35:39.479Z,99460.00
2019-02-07T23:38:08.565Z,99463.00
2019-02-07T23:40:38.262Z,99471.00
2019-02-07T23:43:08.113Z,99468.00
2019-02-07T23:45:37.702Z,99470.00
2019-02-07T23:48:07.129Z,99474.00
2019-02-07T23:50:36.497Z,99476.00
2019-02-07T23:53:14.067Z,99477.00
2019-02-07T23:55:36.546Z,99479.00
2019-02-07T23:58:05.698Z,99485.00
